createdAt,value
2019-02-14T00:00:52.298Z,1.39
2019-02-14T00:03:20.956Z,1.36
2019-02-14T00:05:49.645Z,1.39
2019-02-14T00:08:18.328Z,1.45
2019-02-14T00:10:47.019Z,1.43
2019-02-14T00:13:15.409Z,1.43
2019-02-14T00:15:43.799Z,1.39
2019-02-14T00:18:12.203Z,1.50
2019-02-14T00:20:40.598Z,1.45
2019-02-14T00:23:09.063Z,1.40
2019-02-14T00:25:37.800Z,1.31
2019-02-14T00:28:06.489Z,1.30
2019-02-14T00:30:34.951Z,1.33
2019-02-14T00:33:03.336Z,1.35
2019-02-14T00:35:32.040Z,1.33
2019-02-14T00:38:00.718Z,1.36
2019-02-14T00:40:29.409Z,1.50
2019-02-14T00:42:57.800Z,1.37
2019-02-14T00:45:26.197Z,1.22
2019-02-14T00:47:54.604Z,1.26
2019-02-14T00:50:22.991Z,1.25
2019-02-14T00:52:51.389Z,1.19
2019-02-14T00:55:19.861Z,1.15
2019-02-14T00:57:49.840Z,1.11
2019-02-14T01:00:18.233Z,1.26
2019-02-14T01:02:46.629Z,1.29
2019-02-14T01:05:16.457Z,1.27
2019-02-14T01:07:45.020Z,1.18
2019-02-14T01:10:13.437Z,1.29
2019-02-14T01:12:42.116Z,1.23
2019-02-14T01:15:10.907Z,1.15
2019-02-14T01:17:39.309Z,1.10
2019-02-14T01:20:08.041Z,1.10
2019-02-14T01:22:36.451Z,1.21
2019-02-14T01:25:06.261Z,1.15
2019-02-14T01:27:34.656Z,1.18
2019-02-14T01:30:03.126Z,1.13
2019-02-14T01:32:31.815Z,1.20
2019-02-14T01:35:00.281Z,1.09
2019-02-14T01:37:28.920Z,1.02
2019-02-14T01:39:57.570Z,0.96
2019-02-14T01:42:25.966Z,1.02
2019-02-14T01:44:54.370Z,0.93
2019-02-14T01:47:23.107Z,0.96
2019-02-14T01:49:51.501Z,1.06
2019-02-14T01:52:20.143Z,1.01
2019-02-14T01:54:48.533Z,1.03
2019-02-14T01:57:17.233Z,1.02
2019-02-14T01:59:45.627Z,0.90
2019-02-14T02:02:14.292Z,0.89
2019-02-14T02:04:42.984Z,0.75
2019-02-14T02:07:11.377Z,0.71
2019-02-14T02:09:39.780Z,0.68
2019-02-14T02:12:08.426Z,0.68
2019-02-14T02:14:36.827Z,0.66
2019-02-14T02:17:05.217Z,0.67
2019-02-14T02:19:33.699Z,0.67
2019-02-14T02:22:02.094Z,0.68
2019-02-14T02:24:30.503Z,0.63
2019-02-14T02:26:58.899Z,0.54
2019-02-14T02:29:27.593Z,0.49
2019-02-14T02:31:56.301Z,0.71
2019-02-14T02:34:24.977Z,0.67
2019-02-14T02:36:53.378Z,0.83
2019-02-14T02:39:22.030Z,0.75
2019-02-14T02:41:50.486Z,0.69
2019-02-14T02:44:19.202Z,0.84
2019-02-14T02:46:47.882Z,0.81
2019-02-14T02:49:16.286Z,0.67
2019-02-14T02:51:44.950Z,0.64
2019-02-14T02:54:13.429Z,0.62
2019-02-14T02:56:42.111Z,0.52
2019-02-14T02:59:10.504Z,0.60
2019-02-14T03:01:38.910Z,0.62
2019-02-14T03:04:07.556Z,0.72
2019-02-14T03:06:36.242Z,0.73
2019-02-14T03:09:05.812Z,0.78
2019-02-14T03:11:34.534Z,0.72
2019-02-14T03:14:03.220Z,0.71
2019-02-14T03:16:31.913Z,0.81
2019-02-14T03:19:00.625Z,0.76
2019-02-14T03:21:48.765Z,0.74
2019-02-14T03:24:17.171Z,0.68
2019-02-14T03:26:45.828Z,0.71
2019-02-14T03:29:14.219Z,0.67
2019-02-14T03:31:42.626Z,0.67
2019-02-14T03:34:11.272Z,0.61
2019-02-14T03:36:39.747Z,0.55
2019-02-14T03:39:08.439Z,0.69
2019-02-14T03:41:37.123Z,0.58
2019-02-14T03:44:05.808Z,0.48
2019-02-14T03:46:34.264Z,0.41
2019-02-14T03:49:02.979Z,0.36
2019-02-14T03:51:31.379Z,0.41
2019-02-14T03:53:59.996Z,0.37
2019-02-14T03:56:28.393Z,0.33
2019-02-14T03:58:57.110Z,0.41
2019-02-14T04:01:25.792Z,0.52
2019-02-14T04:03:54.175Z,0.36
2019-02-14T04:06:27.425Z,0.46
2019-02-14T04:08:53.070Z,0.52
2019-02-14T04:11:21.458Z,0.40
2019-02-14T04:13:49.863Z,0.33
2019-02-14T04:16:18.253Z,0.28
2019-02-14T04:18:46.651Z,0.33
2019-02-14T04:21:15.383Z,0.33
2019-02-14T04:23:44.037Z,0.28
2019-02-14T04:26:12.755Z,0.41
2019-02-14T04:28:41.148Z,0.42
2019-02-14T04:31:09.820Z,0.41
2019-02-14T04:33:38.445Z,0.40
2019-02-14T04:36:07.244Z,0.41
2019-02-14T04:38:35.630Z,0.35
2019-02-14T04:41:04.366Z,0.31
2019-02-14T04:43:33.044Z,0.32
2019-02-14T04:46:01.435Z,0.30
2019-02-14T04:48:29.840Z,0.20
2019-02-14T04:50:58.228Z,0.07
2019-02-14T04:53:26.633Z,0.04
2019-02-14T04:55:55.349Z,0.04
2019-02-14T04:58:23.739Z,-0.03
2019-02-14T05:00:52.146Z,-0.04
2019-02-14T05:03:20.529Z,-0.08
2019-02-14T05:05:48.936Z,-0.05
2019-02-14T05:08:17.652Z,0.07
2019-02-14T05:10:46.336Z,0.00
2019-02-14T05:13:14.728Z,-0.05
2019-02-14T05:15:43.119Z,-0.07
2019-02-14T05:18:11.885Z,-0.05
2019-02-14T05:20:40.569Z,0.02
2019-02-14T05:23:08.970Z,0.06
2019-02-14T05:25:37.373Z,0.05
2019-02-14T05:28:05.772Z,0.11
2019-02-14T05:30:34.400Z,0.16
2019-02-14T05:33:02.784Z,0.14
2019-02-14T05:35:31.192Z,0.14
2019-02-14T05:37:59.589Z,0.11
2019-02-14T05:40:28.319Z,-0.01
2019-02-14T05:42:56.705Z,0.02
2019-02-14T05:45:25.114Z,-0.05
2019-02-14T05:47:53.506Z,-0.07
2019-02-14T05:50:21.903Z,-0.15
2019-02-14T05:52:50.300Z,-0.22
2019-02-14T05:55:18.729Z,-0.24
2019-02-14T05:57:47.381Z,-0.27
2019-02-14T06:00:55.939Z,-0.30
2019-02-14T06:03:24.689Z,-0.34
2019-02-14T06:05:53.076Z,-0.38
2019-02-14T06:08:21.497Z,-0.38
2019-02-14T06:10:50.245Z,-0.38
2019-02-14T06:13:18.878Z,-0.42
2019-02-14T06:15:47.673Z,-0.35
2019-02-14T06:18:16.067Z,-0.36
2019-02-14T06:20:44.708Z,-0.34
2019-02-14T06:23:13.102Z,-0.23
2019-02-14T06:25:41.518Z,-0.15
2019-02-14T06:28:10.217Z,-0.24
2019-02-14T06:30:38.617Z,-0.28
2019-02-14T06:33:07.277Z,-0.31
2019-02-14T06:35:35.684Z,-0.30
2019-02-14T06:38:04.377Z,-0.32
2019-02-14T06:40:32.733Z,-0.36
2019-02-14T06:43:01.138Z,-0.33
2019-02-14T06:45:29.529Z,-0.28
2019-02-14T06:47:58.267Z,-0.23
2019-02-14T06:50:34.429Z,-0.26
2019-02-14T06:52:56.777Z,-0.23
2019-02-14T06:55:25.197Z,-0.23
2019-02-14T06:57:53.933Z,-0.16
2019-02-14T07:00:22.325Z,-0.07
2019-02-14T07:02:50.713Z,0.03
2019-02-14T07:05:19.378Z,0.13
2019-02-14T07:07:47.765Z,0.13
2019-02-14T07:10:16.176Z,0.10
2019-02-14T07:12:44.559Z,0.14
2019-02-14T07:15:32.304Z,0.15
2019-02-14T07:18:00.712Z,0.06
2019-02-14T07:20:48.763Z,0.03
2019-02-14T07:23:17.147Z,0.04
2019-02-14T07:25:45.542Z,0.10
2019-02-14T07:28:14.178Z,0.15
2019-02-14T07:30:42.558Z,0.32
2019-02-14T07:33:10.964Z,0.45
2019-02-14T07:35:39.347Z,0.52
2019-02-14T07:38:08.044Z,0.60
2019-02-14T07:40:36.675Z,0.63
2019-02-14T07:43:05.412Z,0.76
2019-02-14T07:45:34.089Z,0.91
2019-02-14T07:48:02.774Z,0.97
2019-02-14T07:50:31.460Z,1.15
2019-02-14T07:52:59.904Z,1.21
2019-02-14T07:55:28.624Z,1.22
2019-02-14T07:57:57.311Z,1.37
2019-02-14T08:00:25.718Z,1.49
2019-02-14T08:03:13.446Z,1.62
2019-02-14T08:05:42.108Z,1.74
2019-02-14T08:08:10.814Z,1.73
2019-02-14T08:10:39.253Z,1.85
2019-02-14T08:13:07.652Z,2.06
2019-02-14T08:15:36.040Z,2.12
2019-02-14T08:18:04.508Z,2.34
2019-02-14T08:20:32.896Z,2.42
2019-02-14T08:23:01.542Z,2.53
2019-02-14T08:25:30.262Z,2.59
2019-02-14T08:27:59.048Z,2.60
2019-02-14T08:30:27.741Z,2.70
2019-02-14T08:32:56.371Z,2.68
2019-02-14T08:35:25.114Z,2.65
2019-02-14T08:37:54.106Z,2.63
2019-02-14T08:40:43.257Z,2.65
2019-02-14T08:43:11.720Z,2.73
2019-02-14T08:45:40.435Z,2.78
2019-02-14T08:48:08.879Z,2.71
2019-02-14T08:50:37.296Z,2.69
2019-02-14T08:53:05.663Z,2.59
2019-02-14T08:55:34.360Z,2.66
2019-02-14T08:58:02.831Z,2.73
2019-02-14T09:00:31.212Z,2.91
2019-02-14T09:03:00.012Z,3.05
2019-02-14T09:05:28.795Z,3.23
2019-02-14T09:07:57.188Z,3.19
2019-02-14T09:10:25.863Z,3.52
2019-02-14T09:12:54.651Z,3.88
2019-02-14T09:15:23.056Z,4.15
2019-02-14T09:17:51.504Z,3.80
2019-02-14T09:20:59.774Z,3.95
2019-02-14T09:23:28.166Z,4.38
2019-02-14T09:26:15.919Z,4.38
2019-02-14T09:28:44.663Z,4.46
2019-02-14T09:31:13.315Z,4.48
2019-02-14T09:33:41.995Z,4.26
2019-02-14T09:36:10.680Z,4.37
2019-02-14T09:38:39.367Z,4.48
2019-02-14T09:41:07.761Z,4.41
2019-02-14T09:43:36.183Z,4.52
2019-02-14T09:46:04.819Z,4.59
2019-02-14T09:48:33.205Z,4.68
2019-02-14T09:51:01.895Z,4.74
2019-02-14T09:53:30.290Z,4.99
2019-02-14T09:56:18.016Z,5.20
2019-02-14T09:58:46.635Z,5.28
2019-02-14T10:01:15.376Z,5.20
2019-02-14T10:03:44.056Z,5.27
2019-02-14T10:06:12.446Z,5.32
2019-02-14T10:08:40.834Z,5.40
2019-02-14T10:11:09.588Z,5.19
2019-02-14T10:13:38.278Z,5.45
2019-02-14T10:16:06.962Z,5.63
2019-02-14T10:18:35.649Z,5.73
2019-02-14T10:21:04.043Z,5.84
2019-02-14T10:23:32.770Z,5.94
2019-02-14T10:26:01.420Z,5.88
2019-02-14T10:28:30.082Z,5.77
2019-02-14T10:30:58.502Z,6.07
2019-02-14T10:33:27.251Z,6.31
2019-02-14T10:35:55.967Z,6.31
2019-02-14T10:38:24.317Z,6.24
2019-02-14T10:40:52.723Z,6.38
2019-02-14T10:43:21.494Z,6.46
2019-02-14T10:45:50.170Z,6.76
2019-02-14T10:48:18.867Z,6.88
2019-02-14T10:50:47.251Z,7.09
2019-02-14T10:53:15.936Z,7.18
2019-02-14T10:55:44.336Z,7.53
2019-02-14T10:58:12.772Z,7.52
2019-02-14T11:00:41.155Z,7.67
2019-02-14T11:03:09.943Z,7.78
2019-02-14T11:05:38.332Z,7.75
2019-02-14T11:08:07.011Z,7.85
2019-02-14T11:10:35.406Z,7.91
2019-02-14T11:13:04.080Z,8.01
2019-02-14T11:15:32.522Z,8.32
2019-02-14T11:18:01.264Z,8.47
2019-02-14T11:20:29.928Z,8.50
2019-02-14T11:22:58.614Z,8.46
2019-02-14T11:25:46.422Z,8.47
2019-02-14T11:28:14.804Z,8.76
2019-02-14T11:30:43.359Z,9.09
2019-02-14T11:33:31.327Z,9.16
2019-02-14T11:36:00.036Z,9.12
2019-02-14T11:38:28.424Z,9.14
2019-02-14T11:40:56.853Z,9.31
2019-02-14T11:43:25.480Z,9.31
2019-02-14T11:45:54.166Z,9.33
2019-02-14T11:48:22.852Z,9.15
2019-02-14T11:50:51.581Z,9.18
2019-02-14T11:53:19.915Z,9.30
2019-02-14T11:55:48.315Z,9.39
2019-02-14T11:58:16.704Z,9.56
2019-02-14T12:00:45.371Z,9.68
2019-02-14T12:03:13.773Z,9.46
2019-02-14T12:05:42.423Z,9.39
2019-02-14T12:08:11.111Z,9.37
2019-02-14T12:10:39.807Z,9.30
2019-02-14T12:13:08.193Z,9.16
2019-02-14T12:15:36.576Z,9.22
2019-02-14T12:18:04.983Z,9.20
2019-02-14T12:20:33.637Z,9.29
2019-02-14T12:23:02.019Z,9.47
2019-02-14T12:26:10.591Z,9.48
2019-02-14T12:28:38.974Z,9.64
2019-02-14T12:31:07.362Z,9.52
2019-02-14T12:33:35.813Z,9.56
2019-02-14T12:36:04.214Z,9.55
2019-02-14T12:38:32.597Z,9.50
2019-02-14T12:41:01.000Z,9.75
2019-02-14T12:43:29.676Z,9.91
2019-02-14T12:45:58.377Z,10.07
2019-02-14T12:48:27.050Z,10.14
2019-02-14T12:50:55.440Z,10.20
2019-02-14T12:53:23.825Z,10.15
2019-02-14T12:55:52.229Z,10.30
2019-02-14T12:58:20.872Z,10.33
2019-02-14T13:00:49.264Z,10.59
2019-02-14T13:03:17.664Z,10.63
2019-02-14T13:08:33.847Z,10.50
2019-02-14T13:11:02.528Z,10.77
2019-02-14T13:13:30.912Z,10.65
2019-02-14T13:15:59.652Z,10.76
2019-02-14T13:18:28.382Z,11.03
2019-02-14T13:20:56.828Z,11.18
2019-02-14T13:23:25.548Z,11.37
2019-02-14T13:25:53.992Z,11.50
2019-02-14T13:28:22.717Z,11.64
2019-02-14T13:30:51.423Z,11.77
2019-02-14T13:33:19.794Z,11.74
2019-02-14T13:35:48.183Z,11.87
2019-02-14T13:38:16.580Z,11.88
2019-02-14T13:40:45.224Z,11.99
2019-02-14T13:43:13.609Z,11.95
2019-02-14T13:45:42.289Z,11.73
2019-02-14T13:48:10.675Z,11.76
2019-02-14T13:50:39.061Z,11.52
2019-02-14T13:53:07.532Z,11.78
2019-02-14T13:55:35.943Z,11.67
2019-02-14T13:58:04.377Z,11.41
2019-02-14T14:00:33.189Z,11.25
2019-02-14T14:03:01.880Z,11.16
2019-02-14T14:05:30.321Z,10.94
2019-02-14T14:07:58.727Z,10.70
2019-02-14T14:10:27.111Z,10.37
2019-02-14T14:12:55.519Z,10.29
2019-02-14T14:15:23.918Z,10.21
2019-02-14T14:17:52.305Z,10.24
2019-02-14T14:20:21.023Z,10.37
2019-02-14T14:22:49.711Z,10.27
2019-02-14T14:25:18.501Z,10.05
2019-02-14T14:27:46.889Z,10.01
2019-02-14T14:30:15.364Z,9.98
2019-02-14T14:32:43.769Z,9.97
2019-02-14T14:35:12.287Z,9.87
2019-02-14T14:37:40.775Z,9.79
2019-02-14T14:40:49.065Z,9.74
2019-02-14T14:46:16.094Z,9.63
2019-02-14T14:51:33.831Z,9.66
2019-02-14T14:54:02.467Z,9.70
2019-02-14T14:56:30.842Z,9.96
2019-02-14T14:58:59.258Z,10.25
2019-02-14T15:01:34.546Z,10.50
2019-02-14T15:04:03.202Z,10.62
2019-02-14T15:06:31.844Z,10.59
2019-02-14T15:09:00.228Z,10.49
2019-02-14T15:11:28.684Z,10.40
2019-02-14T15:13:57.096Z,10.31
2019-02-14T15:16:25.753Z,10.28
2019-02-14T15:18:54.396Z,10.26
2019-02-14T15:21:22.801Z,10.11
2019-02-14T15:23:51.460Z,10.15
2019-02-14T15:26:20.083Z,10.03
2019-02-14T15:28:48.727Z,9.82
2019-02-14T15:31:17.119Z,9.48
2019-02-14T15:33:45.792Z,9.45
2019-02-14T15:36:14.201Z,9.38
2019-02-14T15:38:42.591Z,9.50
2019-02-14T15:41:11.216Z,9.52
2019-02-14T15:43:39.928Z,9.65
2019-02-14T15:46:08.611Z,9.66
2019-02-14T15:48:36.995Z,9.41
2019-02-14T15:51:05.476Z,9.14
2019-02-14T15:53:33.860Z,9.16
2019-02-14T15:56:03.411Z,9.01
2019-02-14T15:58:33.194Z,8.96
2019-02-14T16:01:01.775Z,8.86
2019-02-14T16:03:30.391Z,8.69
2019-02-14T16:05:59.121Z,8.36
2019-02-14T16:08:27.810Z,8.16
2019-02-14T16:10:56.516Z,8.18
2019-02-14T16:13:25.179Z,8.28
2019-02-14T16:15:55.592Z,8.05
2019-02-14T16:18:25.240Z,7.74
2019-02-14T16:20:53.787Z,7.59
2019-02-14T16:23:41.841Z,7.47
2019-02-14T16:26:10.237Z,7.25
2019-02-14T16:28:39.856Z,7.18
2019-02-14T16:31:08.740Z,7.43
2019-02-14T16:33:37.399Z,7.09
2019-02-14T16:36:05.796Z,6.95
2019-02-14T16:38:35.539Z,6.92
2019-02-14T16:41:04.587Z,6.71
2019-02-14T16:43:33.267Z,6.63
2019-02-14T16:46:01.664Z,6.57
2019-02-14T16:48:30.347Z,6.64
2019-02-14T16:50:58.739Z,6.76
2019-02-14T16:53:27.135Z,6.89
2019-02-14T16:56:01.853Z,6.82
2019-02-14T16:58:25.671Z,6.59
2019-02-14T17:00:54.079Z,6.45
2019-02-14T17:03:22.444Z,6.28
2019-02-14T17:05:50.860Z,6.35
2019-02-14T17:08:19.615Z,6.28
2019-02-14T17:10:48.303Z,6.15
2019-02-14T17:13:16.925Z,5.98
2019-02-14T17:15:45.676Z,6.07
2019-02-14T17:18:14.359Z,5.99
2019-02-14T17:20:42.752Z,5.92
2019-02-14T17:23:11.369Z,5.78
2019-02-14T17:25:40.011Z,5.65
2019-02-14T17:28:08.707Z,5.62
2019-02-14T17:30:37.323Z,5.59
2019-02-14T17:33:06.067Z,5.71
2019-02-14T17:35:34.688Z,5.50
2019-02-14T17:38:03.072Z,5.57
2019-02-14T17:40:31.473Z,5.40
2019-02-14T17:43:00.231Z,5.33
2019-02-14T17:45:48.117Z,5.22
2019-02-14T17:48:16.574Z,5.15
2019-02-14T17:50:45.024Z,5.02
2019-02-14T17:53:13.695Z,4.97
2019-02-14T17:55:42.165Z,4.95
2019-02-14T17:58:10.624Z,4.97
2019-02-14T18:03:28.116Z,4.81
2019-02-14T18:05:56.525Z,4.80
2019-02-14T18:08:25.146Z,5.14
2019-02-14T18:10:55.201Z,5.66
2019-02-14T18:13:23.660Z,5.62
2019-02-14T18:15:52.337Z,5.52
2019-02-14T18:18:21.022Z,5.29
2019-02-14T18:20:49.705Z,5.36
2019-02-14T18:23:30.487Z,5.36
2019-02-14T18:25:58.896Z,5.29
2019-02-14T18:28:27.274Z,5.11
2019-02-14T18:30:56.928Z,4.89
2019-02-14T18:33:27.266Z,4.71
2019-02-14T18:35:55.659Z,4.65
2019-02-14T18:38:24.071Z,4.67
2019-02-14T18:40:52.750Z,4.57
2019-02-14T18:43:21.404Z,4.56
2019-02-14T18:45:49.800Z,4.42
2019-02-14T18:48:18.469Z,4.42
2019-02-14T18:50:46.874Z,4.37
2019-02-14T18:53:15.523Z,4.23
2019-02-14T18:55:43.932Z,4.11
2019-02-14T18:58:12.578Z,4.05
2019-02-14T19:00:41.228Z,3.96
2019-02-14T19:03:09.874Z,4.03
2019-02-14T19:05:57.938Z,4.15
2019-02-14T19:08:26.338Z,4.33
2019-02-14T19:10:54.735Z,4.29
2019-02-14T19:13:23.140Z,4.18
2019-02-14T19:15:51.535Z,4.10
2019-02-14T19:18:20.233Z,3.99
2019-02-14T19:20:48.640Z,3.88
2019-02-14T19:23:24.183Z,3.88
2019-02-14T19:25:47.160Z,3.77
2019-02-14T19:28:15.565Z,3.66
2019-02-14T19:30:43.975Z,3.66
2019-02-14T19:33:12.408Z,3.63
2019-02-14T19:35:40.824Z,3.61
2019-02-14T19:38:09.519Z,3.54
2019-02-14T19:40:37.936Z,3.57
2019-02-14T19:43:06.685Z,3.49
2019-02-14T19:45:36.830Z,3.51
2019-02-14T19:48:05.482Z,3.58
2019-02-14T19:50:34.123Z,3.54
2019-02-14T19:53:02.605Z,3.44
2019-02-14T19:55:31.025Z,3.42
2019-02-14T19:57:59.687Z,3.36
2019-02-14T20:00:28.341Z,3.33
2019-02-14T20:02:56.991Z,3.39
2019-02-14T20:05:25.413Z,3.39
2019-02-14T20:07:54.053Z,3.37
2019-02-14T20:10:22.473Z,3.32
2019-02-14T20:12:51.118Z,3.26
2019-02-14T20:15:59.598Z,3.21
2019-02-14T20:18:28.242Z,3.18
2019-02-14T20:20:56.913Z,3.14
2019-02-14T20:23:25.555Z,3.29
2019-02-14T20:25:54.261Z,3.18
2019-02-14T20:28:42.082Z,3.16
2019-02-14T20:31:10.502Z,3.11
2019-02-14T20:33:38.892Z,3.05
2019-02-14T20:36:07.547Z,3.07
2019-02-14T20:38:35.941Z,3.04
2019-02-14T20:41:04.703Z,3.20
2019-02-14T20:43:33.110Z,3.24
2019-02-14T20:46:01.567Z,3.15
2019-02-14T20:48:29.984Z,3.16
2019-02-14T20:50:58.368Z,3.05
2019-02-14T20:53:26.778Z,3.04
2019-02-14T20:55:55.183Z,3.00
2019-02-14T20:58:23.968Z,2.99
2019-02-14T21:00:52.379Z,2.90
2019-02-14T21:03:21.038Z,2.96
2019-02-14T21:05:49.720Z,2.92
2019-02-14T21:08:18.112Z,2.86
2019-02-14T21:10:46.506Z,2.77
2019-02-14T21:13:14.992Z,2.71
2019-02-14T21:15:43.793Z,2.69
2019-02-14T21:18:12.535Z,2.67
2019-02-14T21:21:00.575Z,2.81
2019-02-14T21:23:29.259Z,2.85
2019-02-14T21:26:17.236Z,2.80
2019-02-14T21:28:46.002Z,2.79
2019-02-14T21:31:14.400Z,2.69
2019-02-14T21:33:42.788Z,2.69
2019-02-14T21:36:11.193Z,2.62
2019-02-14T21:38:39.676Z,2.60
2019-02-14T21:41:08.158Z,2.59
2019-02-14T21:44:16.442Z,2.51
2019-02-14T21:46:44.865Z,2.44
2019-02-14T21:49:13.250Z,2.47
2019-02-14T21:51:41.891Z,2.41
2019-02-14T21:54:10.312Z,2.41
2019-02-14T21:56:38.715Z,2.49
2019-02-14T21:59:07.148Z,2.52
2019-02-14T22:01:35.523Z,2.49
2019-02-14T22:04:03.925Z,2.51
2019-02-14T22:06:32.315Z,2.48
2019-02-14T22:09:00.727Z,2.49
2019-02-14T22:11:33.976Z,2.48
2019-02-14T22:13:59.607Z,2.39
2019-02-14T22:16:27.981Z,2.32
2019-02-14T22:18:56.378Z,2.27
2019-02-14T22:21:24.777Z,2.25
2019-02-14T22:23:53.164Z,2.24
2019-02-14T22:26:21.900Z,2.32
2019-02-14T22:28:50.284Z,2.40
2019-02-14T22:31:18.967Z,2.39
2019-02-14T22:33:47.367Z,2.42
2019-02-14T22:36:15.776Z,2.41
2019-02-14T22:39:26.315Z,2.43
2019-02-14T22:41:54.533Z,2.35
2019-02-14T22:44:22.936Z,2.31
2019-02-14T22:46:51.324Z,2.36
2019-02-14T22:49:19.745Z,2.33
2019-02-14T22:51:48.388Z,2.38
2019-02-14T22:54:17.077Z,2.28
2019-02-14T22:56:45.812Z,2.16
2019-02-14T22:59:14.204Z,2.10
2019-02-14T23:02:22.760Z,2.04
2019-02-14T23:04:51.165Z,2.03
2019-02-14T23:07:19.558Z,1.98
2019-02-14T23:09:47.955Z,2.04
2019-02-14T23:12:16.368Z,2.01
2019-02-14T23:14:44.763Z,1.94
2019-02-14T23:17:13.505Z,1.96
2019-02-14T23:19:42.153Z,1.95
2019-02-14T23:22:10.561Z,1.92
2019-02-14T23:24:38.962Z,1.89
2019-02-14T23:27:07.639Z,1.84
2019-02-14T23:29:36.296Z,1.84
2019-02-14T23:32:04.712Z,1.89
2019-02-14T23:34:33.391Z,1.76
2019-02-14T23:37:01.800Z,1.85
2019-02-14T23:39:30.215Z,1.83
2019-02-14T23:41:58.614Z,1.81
2019-02-14T23:44:27.192Z,1.81
2019-02-14T23:46:55.891Z,1.83
2019-02-14T23:49:24.589Z,1.86
2019-02-14T23:51:53.374Z,1.94
2019-02-14T23:54:22.010Z,1.95
2019-02-14T23:56:50.745Z,1.90
2019-02-14T23:59:19.420Z,1.87
